PABI

Allen AAF Airport

Delta Junction Ft Greely, Alaska, USA
TAF AMD PABI 170230Z 1702/1804 11015G20KT 9999 FEW160 QNH2979INS TEMPO 1703/1710 11025G35KT TXM11/1703Z TNM15/1710Z
Issued Valid From Valid To
Jan-17 @ 02:30 UTC
(3 hours ago)
Jan-17 @ 02:00 UTC
(3 hours ago)
Jan-18 @ 04:00 UTC
(in 23 hours)
Jan-17 @ 02:00 to Jan-18 @ 04:00
TAF AMD PABI 170230Z 1702/1804 11015G20KT 9999 FEW160 QNH2979INS
Wind Visibility Clouds Readings
110° at 15 knots
 Gusting to 20 knots
Greater than 6 miles
  • Few at 16,000' AGL
Altimeter 29.79" Hg
Pressure 1008.92 hPa
Temporary Jan-17 @ 03:00 to Jan-17 @ 10:00
TEMPO 1703/1710 11025G35KT TXM11/1703Z TNM15/1710Z
Wind
110° at 25 knots
 Gusting to 35 knots
TAF AMD PABI 170230Z 1702/1804 11015G20KT 9999 FEW160 QNH2979INS TEMPO 1703/1710 11025G35KT TXM11/1703Z TNM15/1710Z
Issued Jan-17 @ 02:30 UTC
(3 hours ago)
Valid From Jan-17 @ 02:00 UTC
(3 hours ago)
Valid To Jan-18 @ 04:00 UTC
(in 23 hours)
Jan-17 @ 02:00 - Jan-18 @ 04:00
Wind Visibility
110° at 15 knots
 Gusting to 20 knots
Greater than 6 miles
Clouds
  • Few at 16,000' AGL
Temporary Jan-17 @ 03:00 - Jan-17 @ 10:00
Wind
110° at 25 knots
 Gusting to 35 knots